createdAt,value
2022-08-01T00:00:11.400Z,20.60
2022-08-01T00:02:39.860Z,20.69
2022-08-01T00:05:09.213Z,20.62
2022-08-01T00:07:37.275Z,20.56
2022-08-01T00:10:05.716Z,20.48
2022-08-01T00:12:33.802Z,20.59
2022-08-01T00:15:03.225Z,20.50
2022-08-01T00:17:31.295Z,20.36
2022-08-01T00:19:59.385Z,20.36
2022-08-01T00:22:27.486Z,20.24
2022-08-01T00:24:55.628Z,20.34
2022-08-01T00:27:23.692Z,20.18
2022-08-01T00:30:12.033Z,20.51
2022-08-01T00:32:43.790Z,20.36
2022-08-01T00:35:11.874Z,20.12
2022-08-01T00:37:40.319Z,20.05
2022-08-01T00:40:08.923Z,20.00
2022-08-01T00:42:41.552Z,20.15
2022-08-01T00:45:11.799Z,20.02
2022-08-01T00:47:39.892Z,20.03
2022-08-01T00:50:10.071Z,20.03
2022-08-01T00:52:38.854Z,20.29
2022-08-01T00:55:07.189Z,20.47
2022-08-01T00:58:01.494Z,20.55
2022-08-01T01:00:27.511Z,20.40
2022-08-01T01:02:55.729Z,20.25
2022-08-01T01:05:25.117Z,20.42
2022-08-01T01:07:58.405Z,20.33
2022-08-01T01:10:32.377Z,20.55
2022-08-01T01:13:04.162Z,20.86
2022-08-01T01:15:37.124Z,21.18
2022-08-01T01:18:06.121Z,20.92
2022-08-01T01:20:38.048Z,20.80
2022-08-01T01:23:14.339Z,20.57
2022-08-01T01:25:47.933Z,20.56
2022-08-01T01:28:19.043Z,21.17
2022-08-01T01:30:50.939Z,20.96
2022-08-01T01:33:19.597Z,20.90
2022-08-01T01:35:49.761Z,20.58
2022-08-01T01:38:20.416Z,20.36
2022-08-01T01:40:49.753Z,20.53
2022-08-01T01:43:18.662Z,20.11
2022-08-01T01:45:49.274Z,19.92
2022-08-01T01:48:22.236Z,19.88
2022-08-01T01:50:51.388Z,20.05
2022-08-01T01:53:21.427Z,19.94
2022-08-01T01:55:50.917Z,20.21
2022-08-01T01:58:22.099Z,19.99
2022-08-01T02:00:53.403Z,20.17
2022-08-01T02:03:22.772Z,19.90
2022-08-01T02:05:51.415Z,20.08
2022-08-01T02:08:22.168Z,20.08
2022-08-01T02:11:06.428Z,20.22
2022-08-01T02:13:36.300Z,19.80
2022-08-01T02:16:07.880Z,19.96
2022-08-01T02:18:36.067Z,19.56
2022-08-01T02:21:06.100Z,19.49
2022-08-01T02:23:35.564Z,19.89
2022-08-01T02:26:10.299Z,19.49
2022-08-01T02:28:45.402Z,19.34
2022-08-01T02:31:16.275Z,19.18
2022-08-01T02:33:46.488Z,19.08
2022-08-01T02:36:30.094Z,19.04
2022-08-01T02:39:02.664Z,18.93
2022-08-01T02:41:32.592Z,18.91
2022-08-01T02:44:01.768Z,18.91
2022-08-01T02:46:33.525Z,18.82
2022-08-01T02:49:02.978Z,18.79
2022-08-01T02:51:35.158Z,18.85
2022-08-01T02:54:04.456Z,18.87
2022-08-01T02:56:36.625Z,18.86
2022-08-01T02:59:06.268Z,19.07
2022-08-01T03:01:37.756Z,18.92
2022-08-01T03:04:06.811Z,18.81
2022-08-01T03:06:37.958Z,18.72
2022-08-01T03:09:08.755Z,18.79
2022-08-01T03:11:38.340Z,18.85
2022-08-01T03:14:07.951Z,18.97
2022-08-01T03:16:39.306Z,19.02
2022-08-01T03:19:09.193Z,18.78
2022-08-01T03:21:38.166Z,18.99
2022-08-01T03:24:10.098Z,18.93
2022-08-01T03:26:38.886Z,18.77
2022-08-01T03:29:08.342Z,18.81
2022-08-01T03:31:39.088Z,18.78
2022-08-01T03:34:07.817Z,18.73
2022-08-01T03:36:39.637Z,18.84
2022-08-01T03:39:10.542Z,18.78
2022-08-01T03:41:42.023Z,18.97
2022-08-01T03:44:20.227Z,18.81
2022-08-01T03:46:50.813Z,18.59
2022-08-01T03:49:20.492Z,18.36
2022-08-01T03:51:50.373Z,18.54
2022-08-01T03:54:22.072Z,18.84
2022-08-01T03:56:52.310Z,19.05
2022-08-01T03:59:21.100Z,19.33
2022-08-01T04:01:50.804Z,19.08
2022-08-01T04:04:19.119Z,18.80
2022-08-01T04:06:47.179Z,18.51
2022-08-01T04:09:15.382Z,18.90
2022-08-01T04:11:43.438Z,18.75
2022-08-01T04:14:11.508Z,18.93
2022-08-01T04:16:39.993Z,18.98
2022-08-01T04:19:09.550Z,19.08
2022-08-01T04:21:37.974Z,18.97
2022-08-01T04:24:09.586Z,18.78
2022-08-01T04:26:39.714Z,18.82
2022-08-01T04:29:08.716Z,18.83
2022-08-01T04:31:37.937Z,19.40
2022-08-01T04:34:07.688Z,19.38
2022-08-01T04:36:39.047Z,19.26
2022-08-01T04:39:07.947Z,19.43
2022-08-01T04:41:39.340Z,19.75
2022-08-01T04:44:07.892Z,19.72
2022-08-01T04:46:37.805Z,19.86
2022-08-01T04:49:07.997Z,19.98
2022-08-01T04:51:37.478Z,19.75
2022-08-01T04:54:05.723Z,19.43
2022-08-01T04:56:35.024Z,19.75
2022-08-01T04:59:20.516Z,20.07
2022-08-01T05:01:51.702Z,20.37
2022-08-01T05:04:20.311Z,20.35
2022-08-01T05:06:49.758Z,20.24
2022-08-01T05:09:17.939Z,21.03
2022-08-01T05:11:46.033Z,20.95
2022-08-01T05:14:14.156Z,20.61
2022-08-01T05:16:42.747Z,20.98
2022-08-01T05:19:13.087Z,21.35
2022-08-01T05:21:41.189Z,21.36
2022-08-01T05:24:10.616Z,20.54
2022-08-01T05:26:38.700Z,20.39
2022-08-01T05:29:09.316Z,20.33
2022-08-01T05:31:37.383Z,20.79
2022-08-01T05:34:07.827Z,21.40
2022-08-01T05:36:43.232Z,21.75
2022-08-01T05:39:12.772Z,22.06
2022-08-01T05:41:40.882Z,22.20
2022-08-01T05:44:09.043Z,22.95
2022-08-01T05:46:37.143Z,23.76
2022-08-01T05:49:06.309Z,25.94
2022-08-01T05:51:34.567Z,27.65
2022-08-01T05:54:03.491Z,26.29
2022-08-01T05:56:33.250Z,28.43
2022-08-01T05:59:03.601Z,30.51
2022-08-01T06:01:31.698Z,29.35
2022-08-01T06:03:59.937Z,30.33
2022-08-01T06:06:28.011Z,29.82
2022-08-01T06:08:56.090Z,30.02
2022-08-01T06:11:24.155Z,29.60
2022-08-01T06:13:54.640Z,31.86
2022-08-01T06:16:22.727Z,31.19
2022-08-01T06:18:54.963Z,32.13
2022-08-01T06:21:25.047Z,31.15
2022-08-01T06:23:55.711Z,32.43
2022-08-01T06:26:24.148Z,32.64
2022-08-01T06:28:53.960Z,32.42
2022-08-01T06:31:22.318Z,33.07
2022-08-01T06:33:50.675Z,32.13
2022-08-01T06:36:19.144Z,31.35
2022-08-01T06:38:47.508Z,27.07
2022-08-01T06:41:15.696Z,26.14
2022-08-01T06:43:43.760Z,25.36
2022-08-01T06:46:13.171Z,25.14
2022-08-01T06:48:43.638Z,25.34
2022-08-01T06:51:14.644Z,25.10
2022-08-01T06:53:43.906Z,24.03
2022-08-01T06:56:13.393Z,24.58
2022-08-01T06:58:41.458Z,24.82
2022-08-01T07:01:09.758Z,24.69
2022-08-01T07:03:53.953Z,24.61
2022-08-01T07:06:24.143Z,24.18
2022-08-01T07:08:52.425Z,24.32
2022-08-01T07:11:20.594Z,24.57
2022-08-01T07:13:48.932Z,24.35
2022-08-01T07:16:17.511Z,24.82
2022-08-01T07:18:49.289Z,25.21
2022-08-01T07:21:39.377Z,24.65
2022-08-01T07:24:12.889Z,24.84
2022-08-01T07:26:52.639Z,24.52
2022-08-01T07:29:23.132Z,24.09
2022-08-01T07:31:51.257Z,24.14
2022-08-01T07:34:20.711Z,24.66
2022-08-01T07:36:48.781Z,24.78
2022-08-01T07:39:16.879Z,25.10
2022-08-01T07:42:05.973Z,24.77
2022-08-01T07:44:33.061Z,24.60
2022-08-01T07:47:01.203Z,25.29
2022-08-01T07:49:32.797Z,24.98
2022-08-01T07:52:04.392Z,24.86
2022-08-01T07:54:33.125Z,24.55
2022-08-01T07:57:02.389Z,24.64
2022-08-01T07:59:30.508Z,24.40
2022-08-01T08:02:00.735Z,24.44
2022-08-01T08:04:30.604Z,24.52
2022-08-01T08:06:58.740Z,24.63
2022-08-01T08:09:27.251Z,24.86
2022-08-01T08:11:55.324Z,24.56
2022-08-01T08:14:32.406Z,24.51
2022-08-01T08:17:03.342Z,24.38
2022-08-01T08:19:38.657Z,24.36
2022-08-01T08:22:07.933Z,24.80
2022-08-01T08:24:36.577Z,25.44
2022-08-01T08:27:13.813Z,24.54
2022-08-01T08:29:42.741Z,25.05
2022-08-01T08:32:11.301Z,24.94
2022-08-01T08:34:40.889Z,25.02
2022-08-01T08:37:09.684Z,24.81
2022-08-01T08:39:41.750Z,25.06
2022-08-01T08:42:11.109Z,24.64
2022-08-01T08:44:39.962Z,24.91
2022-08-01T08:47:17.332Z,25.06
2022-08-01T08:49:49.848Z,25.40
2022-08-01T08:52:19.446Z,25.78
2022-08-01T08:54:47.948Z,26.15
2022-08-01T08:57:16.457Z,26.04
2022-08-01T08:59:45.001Z,25.74
2022-08-01T09:02:14.096Z,25.12
2022-08-01T09:04:42.600Z,25.58
2022-08-01T09:07:12.741Z,25.09
2022-08-01T09:09:41.683Z,24.99
2022-08-01T09:12:12.397Z,25.03
2022-08-01T09:14:46.648Z,25.46
2022-08-01T09:17:14.752Z,25.28
2022-08-01T09:19:44.260Z,25.56
2022-08-01T09:22:14.912Z,26.61
2022-08-01T09:24:43.595Z,25.66
2022-08-01T09:27:19.803Z,26.02
2022-08-01T09:30:00.767Z,25.52
2022-08-01T09:32:35.298Z,25.60
2022-08-01T09:35:19.539Z,25.59
2022-08-01T09:37:49.007Z,25.98
2022-08-01T09:40:17.149Z,25.74
2022-08-01T09:42:49.690Z,26.02
2022-08-01T09:45:41.938Z,26.53
2022-08-01T09:48:14.098Z,26.72
2022-08-01T09:50:43.830Z,26.73
2022-08-01T09:53:30.430Z,26.80
2022-08-01T09:56:10.325Z,26.85
2022-08-01T09:58:56.221Z,27.02
2022-08-01T10:01:27.146Z,26.59
2022-08-01T10:04:09.835Z,26.79
2022-08-01T10:06:39.244Z,27.04
2022-08-01T10:09:08.711Z,26.46
2022-08-01T10:11:40.046Z,26.86
2022-08-01T10:14:08.742Z,26.51
2022-08-01T10:16:38.616Z,26.82
2022-08-01T10:19:11.288Z,26.83
2022-08-01T10:21:57.927Z,27.11
2022-08-01T10:24:30.009Z,27.31
2022-08-01T10:27:05.811Z,28.04
2022-08-01T10:29:45.990Z,27.45
2022-08-01T10:32:16.917Z,27.14
2022-08-01T10:34:45.401Z,26.69
2022-08-01T10:37:14.877Z,26.74
2022-08-01T10:39:46.850Z,26.83
2022-08-01T10:42:15.582Z,26.00
2022-08-01T10:44:47.212Z,25.87
2022-08-01T10:47:23.323Z,26.21
2022-08-01T10:49:59.334Z,26.90
2022-08-01T10:52:28.391Z,26.48
2022-08-01T10:55:05.063Z,26.90
2022-08-01T10:57:43.529Z,27.33
2022-08-01T11:00:21.472Z,26.34
2022-08-01T11:02:59.150Z,27.41
2022-08-01T11:05:27.376Z,27.75
2022-08-01T11:07:56.744Z,27.94
2022-08-01T11:10:33.088Z,28.09
2022-08-01T11:13:04.475Z,28.44
2022-08-01T11:15:32.610Z,28.30
2022-08-01T11:18:02.034Z,27.67
2022-08-01T11:20:32.189Z,27.57
2022-08-01T11:23:36.261Z,27.80
2022-08-01T11:26:29.104Z,27.23
2022-08-01T11:29:21.143Z,27.28
2022-08-01T11:31:51.095Z,27.30
2022-08-01T11:34:19.739Z,26.81
2022-08-01T11:37:09.815Z,27.43
2022-08-01T11:39:39.048Z,27.41
2022-08-01T11:42:22.571Z,27.70
2022-08-01T11:44:52.817Z,27.59
2022-08-01T11:47:40.946Z,27.43
2022-08-01T11:50:32.034Z,27.83
2022-08-01T11:53:00.845Z,27.02
2022-08-01T11:55:31.544Z,27.32
2022-08-01T11:58:01.357Z,27.47
2022-08-01T12:00:31.714Z,27.64
2022-08-01T12:03:00.672Z,27.93
2022-08-01T12:05:31.377Z,27.71
2022-08-01T12:07:59.706Z,27.98
2022-08-01T12:10:29.350Z,29.01
2022-08-01T12:13:01.064Z,29.16
2022-08-01T12:15:33.647Z,28.57
2022-08-01T12:18:03.423Z,28.72
2022-08-01T12:20:33.196Z,28.05
2022-08-01T12:23:02.138Z,28.74
2022-08-01T12:25:30.551Z,28.46
2022-08-01T12:28:02.084Z,28.56
2022-08-01T12:30:31.756Z,27.91
2022-08-01T12:33:01.253Z,28.09
2022-08-01T12:35:30.193Z,28.31
2022-08-01T12:37:59.043Z,28.38
2022-08-01T12:40:28.151Z,28.16
2022-08-01T12:42:57.337Z,28.05
2022-08-01T12:45:26.848Z,28.12
2022-08-01T12:47:55.914Z,28.72
2022-08-01T12:50:29.024Z,28.51
2022-08-01T12:52:57.816Z,28.63
2022-08-01T12:55:34.635Z,29.00
2022-08-01T12:58:06.853Z,28.07
2022-08-01T13:00:35.504Z,27.78
2022-08-01T13:03:04.839Z,28.41
2022-08-01T13:05:44.160Z,28.89
2022-08-01T13:08:13.095Z,28.96
2022-08-01T13:10:41.532Z,29.02
2022-08-01T13:13:10.196Z,28.58
2022-08-01T13:15:41.807Z,29.71
2022-08-01T13:18:26.035Z,28.94
2022-08-01T13:26:41.849Z,28.45
2022-08-01T13:29:11.565Z,29.13
2022-08-01T13:31:40.513Z,29.75
2022-08-01T13:34:11.516Z,29.76
2022-08-01T13:36:40.693Z,28.61
2022-08-01T13:39:29.334Z,29.19
2022-08-01T13:41:58.765Z,28.97
2022-08-01T13:44:26.825Z,28.76
2022-08-01T13:46:57.284Z,29.31
2022-08-01T13:49:25.565Z,29.12
2022-08-01T13:52:07.577Z,28.47
2022-08-01T13:54:36.999Z,28.43
2022-08-01T13:57:06.828Z,29.49
2022-08-01T13:59:35.269Z,28.98
2022-08-01T14:02:03.918Z,28.95
2022-08-01T14:04:32.196Z,29.05
2022-08-01T14:07:03.076Z,29.94
2022-08-01T14:09:35.300Z,29.07
2022-08-01T14:12:14.754Z,29.13
2022-08-01T14:14:42.855Z,28.71
2022-08-01T14:17:13.745Z,28.65
2022-08-01T14:19:46.230Z,28.26
2022-08-01T14:22:14.562Z,28.90
2022-08-01T14:24:42.758Z,28.33
2022-08-01T14:27:11.178Z,29.50
2022-08-01T14:30:03.154Z,29.62
2022-08-01T14:32:29.100Z,29.91
2022-08-01T14:34:57.658Z,29.22
2022-08-01T14:37:31.720Z,29.78
2022-08-01T14:40:05.610Z,28.61
2022-08-01T14:42:35.674Z,29.33
2022-08-01T14:45:09.285Z,29.14
2022-08-01T14:47:38.032Z,29.12
2022-08-01T14:50:07.308Z,28.83
2022-08-01T14:52:35.789Z,28.56
2022-08-01T14:55:04.164Z,28.78
2022-08-01T14:57:34.812Z,29.54
2022-08-01T15:00:03.053Z,30.33
2022-08-01T15:02:32.464Z,29.89
2022-08-01T15:05:00.597Z,29.63
2022-08-01T15:07:28.934Z,29.26
2022-08-01T15:09:57.164Z,29.66
2022-08-01T15:12:25.264Z,29.67
2022-08-01T15:14:53.443Z,29.82
2022-08-01T15:17:22.709Z,28.88
2022-08-01T15:19:54.603Z,28.94
2022-08-01T15:22:23.257Z,28.58
2022-08-01T15:24:56.849Z,28.60
2022-08-01T15:27:25.741Z,28.29
2022-08-01T15:29:54.402Z,28.26
2022-08-01T15:32:22.542Z,28.32
2022-08-01T15:34:50.713Z,28.20
2022-08-01T15:37:20.256Z,28.50
2022-08-01T15:39:48.437Z,28.68
2022-08-01T15:42:20.207Z,28.51
2022-08-01T15:44:53.795Z,28.55
2022-08-01T15:47:22.593Z,28.45
2022-08-01T15:49:56.727Z,28.78
2022-08-01T15:52:30.773Z,27.97
2022-08-01T15:55:02.324Z,28.18
2022-08-01T15:57:32.804Z,27.74
2022-08-01T16:00:00.885Z,28.03
2022-08-01T16:02:28.948Z,27.83
2022-08-01T16:04:57.006Z,28.15
2022-08-01T16:07:27.024Z,27.95
2022-08-01T16:09:55.117Z,28.01
2022-08-01T16:12:23.179Z,28.04
2022-08-01T16:14:51.217Z,28.04
2022-08-01T16:17:19.249Z,27.97
2022-08-01T16:19:47.332Z,27.82
2022-08-01T16:22:15.367Z,27.76
2022-08-01T16:24:44.824Z,27.42
2022-08-01T16:27:12.910Z,27.79
2022-08-01T16:29:41.025Z,27.72
2022-08-01T16:32:30.100Z,27.66
2022-08-01T16:34:59.316Z,27.82
2022-08-01T16:37:29.801Z,27.57
2022-08-01T16:39:59.216Z,27.30
2022-08-01T16:42:29.664Z,27.18
2022-08-01T16:44:59.391Z,27.43
2022-08-01T16:47:27.699Z,27.37
2022-08-01T16:49:55.829Z,27.11
2022-08-01T16:52:28.768Z,27.02
2022-08-01T16:54:58.005Z,26.64
2022-08-01T16:57:27.391Z,26.80
2022-08-01T16:59:55.516Z,27.15
2022-08-01T17:02:24.509Z,27.45
2022-08-01T17:04:52.686Z,27.15
2022-08-01T17:07:20.805Z,26.98
2022-08-01T17:09:48.875Z,27.07
2022-08-01T17:12:21.941Z,26.92
2022-08-01T17:14:52.012Z,26.76
2022-08-01T17:17:20.253Z,26.71
2022-08-01T17:19:48.355Z,27.01
2022-08-01T17:22:16.516Z,28.45
2022-08-01T17:24:44.610Z,27.13
2022-08-01T17:27:13.767Z,26.69
2022-08-01T17:29:43.897Z,26.79
2022-08-01T17:32:14.444Z,26.41
2022-08-01T17:34:42.619Z,26.10
2022-08-01T17:37:10.971Z,25.98
2022-08-01T17:39:40.036Z,25.89
2022-08-01T17:42:08.747Z,25.97
2022-08-01T17:44:37.179Z,25.85
2022-08-01T17:47:06.268Z,25.82
2022-08-01T17:52:29.480Z,25.62
2022-08-01T17:55:00.639Z,25.76
2022-08-01T17:57:28.985Z,25.82
2022-08-01T17:59:57.922Z,25.72
2022-08-01T18:02:26.505Z,25.60
2022-08-01T18:04:56.108Z,25.54
2022-08-01T18:08:00.592Z,25.65
2022-08-01T18:10:12.382Z,25.63
2022-08-01T18:12:40.512Z,25.67
2022-08-01T18:15:08.995Z,25.84
2022-08-01T18:17:37.267Z,25.58
2022-08-01T18:20:08.420Z,25.54
2022-08-01T18:22:36.966Z,25.47
2022-08-01T18:25:08.700Z,25.16
2022-08-01T18:28:29.587Z,25.32
2022-08-01T18:30:27.924Z,25.37
2022-08-01T18:32:56.061Z,25.24
2022-08-01T18:35:51.702Z,25.11
2022-08-01T18:38:14.108Z,25.09
2022-08-01T18:40:42.720Z,24.97
2022-08-01T18:43:10.799Z,24.91
2022-08-01T18:45:42.749Z,24.92
2022-08-01T18:48:11.438Z,24.90
2022-08-01T18:50:40.916Z,24.84
2022-08-01T18:53:09.055Z,24.79
2022-08-01T18:55:37.197Z,24.70
2022-08-01T18:58:05.365Z,24.63
2022-08-01T19:00:33.474Z,24.58
2022-08-01T19:03:01.581Z,24.54
2022-08-01T19:05:31.264Z,24.64
2022-08-01T19:08:07.232Z,24.44
2022-08-01T19:10:35.971Z,24.55
2022-08-01T19:13:04.102Z,24.59
2022-08-01T19:15:34.656Z,24.45
2022-08-01T19:18:03.085Z,24.42
2022-08-01T19:20:31.337Z,24.43
2022-08-01T19:22:59.677Z,24.42
2022-08-01T19:25:29.292Z,24.32
2022-08-01T19:27:58.564Z,24.26
2022-08-01T19:30:27.252Z,24.26
2022-08-01T19:32:56.190Z,24.21
2022-08-01T19:35:25.352Z,24.21
2022-08-01T19:37:54.169Z,24.05
2022-08-01T19:40:26.164Z,24.14
2022-08-01T19:42:57.739Z,24.08
2022-08-01T19:45:29.177Z,24.05
2022-08-01T19:48:00.493Z,23.83
2022-08-01T19:50:29.800Z,23.99
2022-08-01T19:52:58.848Z,24.08
2022-08-01T19:55:28.036Z,23.98
2022-08-01T19:58:26.002Z,24.06
2022-08-01T20:00:46.590Z,23.97
2022-08-01T20:03:15.941Z,23.95
2022-08-01T20:05:44.500Z,23.82
2022-08-01T20:08:13.448Z,23.72
2022-08-01T20:10:41.813Z,23.52
2022-08-01T20:13:13.493Z,23.61
2022-08-01T20:15:44.026Z,23.66
2022-08-01T20:18:12.154Z,23.77
2022-08-01T20:20:40.334Z,23.63
2022-08-01T20:23:10.382Z,23.53
2022-08-01T20:25:42.074Z,23.55
2022-08-01T20:28:10.491Z,23.37
2022-08-01T20:30:40.684Z,23.16
2022-08-01T20:33:09.586Z,23.24
2022-08-01T20:35:52.061Z,23.24
2022-08-01T20:38:23.143Z,23.35
2022-08-01T20:40:52.974Z,23.43
2022-08-01T20:43:21.844Z,23.39
2022-08-01T20:45:52.443Z,23.35
2022-08-01T20:48:21.295Z,23.53
2022-08-01T20:51:07.396Z,23.47
2022-08-01T20:53:40.590Z,23.20
2022-08-01T20:56:11.199Z,23.08
2022-08-01T20:58:46.165Z,23.01
2022-08-01T21:01:18.732Z,23.24
2022-08-01T21:03:52.250Z,23.16
2022-08-01T21:06:23.936Z,23.43
2022-08-01T21:08:55.644Z,23.41
2022-08-01T21:11:26.487Z,23.26
2022-08-01T21:13:58.992Z,23.27
2022-08-01T21:16:32.454Z,23.43
2022-08-01T21:19:22.097Z,23.51
2022-08-01T21:21:52.086Z,23.38
2022-08-01T21:24:23.530Z,23.23
2022-08-01T21:26:52.701Z,22.98
2022-08-01T21:29:22.369Z,22.90
2022-08-01T21:32:11.384Z,23.14
2022-08-01T21:34:39.853Z,23.25
2022-08-01T21:37:10.812Z,23.18
2022-08-01T21:39:39.460Z,22.95
2022-08-01T21:42:15.188Z,22.92
2022-08-01T21:44:47.428Z,22.89
2022-08-01T21:47:16.959Z,22.78
2022-08-01T21:49:45.081Z,22.76
2022-08-01T21:52:15.307Z,22.77
2022-08-01T21:54:50.614Z,22.65
2022-08-01T21:57:25.775Z,22.90
2022-08-01T22:02:40.866Z,22.84
2022-08-01T22:05:10.087Z,22.81
2022-08-01T22:07:53.434Z,22.73
2022-08-01T22:10:21.797Z,22.36
2022-08-01T22:12:50.123Z,22.21
2022-08-01T22:15:20.059Z,22.12
2022-08-01T22:17:51.592Z,22.57
2022-08-01T22:20:21.024Z,22.55
2022-08-01T22:22:52.563Z,22.34
2022-08-01T22:25:20.962Z,22.22
2022-08-01T22:28:05.788Z,22.20
2022-08-01T22:30:41.404Z,22.15
2022-08-01T22:33:15.996Z,21.87
2022-08-01T22:35:46.490Z,21.93
2022-08-01T22:38:17.697Z,21.66
2022-08-01T22:40:46.984Z,21.77
2022-08-01T22:43:22.457Z,22.01
2022-08-01T22:45:55.352Z,21.94
2022-08-01T22:48:26.413Z,21.75
2022-08-01T22:50:57.741Z,21.72
2022-08-01T22:53:31.831Z,21.58
2022-08-01T22:56:02.369Z,21.42
2022-08-01T22:58:31.634Z,21.48
2022-08-01T23:01:01.187Z,20.99
2022-08-01T23:03:33.583Z,20.88
2022-08-01T23:06:03.979Z,20.92
2022-08-01T23:08:33.011Z,20.63
2022-08-01T23:11:02.064Z,20.79
2022-08-01T23:13:30.554Z,20.79
2022-08-01T23:15:58.682Z,20.87
2022-08-01T23:18:27.520Z,20.29
2022-08-01T23:20:58.705Z,20.27
2022-08-01T23:23:31.446Z,20.51
2022-08-01T23:26:00.405Z,20.13
2022-08-01T23:28:29.099Z,20.19
2022-08-01T23:30:57.351Z,20.12
2022-08-01T23:33:25.392Z,20.36
2022-08-01T23:35:57.043Z,20.35
2022-08-01T23:38:25.089Z,20.32
2022-08-01T23:40:55.834Z,20.01
2022-08-01T23:43:23.941Z,19.87
2022-08-01T23:46:03.495Z,19.92
2022-08-01T23:48:34.268Z,20.01
2022-08-01T23:51:04.236Z,19.80
2022-08-01T23:53:33.664Z,19.87
2022-08-01T23:56:04.226Z,19.72
2022-08-01T23:58:33.351Z,19.63
